createdAt,value
2019-01-17T00:25:57.291Z,984.76
2019-01-17T00:54:39.637Z,984.59
2019-01-17T01:23:13.834Z,984.67
2019-01-17T01:51:50.543Z,984.91
2019-01-17T02:20:31.668Z,984.93
2019-01-17T02:49:06.097Z,984.57
2019-01-17T03:17:47.817Z,984.24
2019-01-17T03:46:22.099Z,984.45
2019-01-17T04:15:01.866Z,984.36
2019-01-17T04:43:42.097Z,984.54
2019-01-17T05:12:17.625Z,984.72
2019-01-17T05:40:52.066Z,984.86
2019-01-17T06:09:29.911Z,984.88
2019-01-17T06:38:09.057Z,984.65
2019-01-17T07:06:49.335Z,984.77
2019-01-17T07:35:23.564Z,985.04
2019-01-17T08:04:03.226Z,984.97
2019-01-17T08:32:38.744Z,984.97
2019-01-17T09:01:17.793Z,985.05
2019-01-17T09:29:58.631Z,984.79
2019-01-17T09:58:37.849Z,985.02
2019-01-17T10:27:12.410Z,984.86
2019-01-17T10:55:52.312Z,984.59
2019-01-17T11:24:32.687Z,984.28
2019-01-17T11:53:13.470Z,984.13
2019-01-17T12:21:53.549Z,983.79
2019-01-17T12:50:33.767Z,983.87
2019-01-17T13:19:00.116Z,983.59
2019-01-17T13:47:37.967Z,983.42
2019-01-17T14:16:17.349Z,983.1
2019-01-17T14:44:56.063Z,983.06
2019-01-17T15:13:29.982Z,982.95
2019-01-17T15:42:07.345Z,983.11
2019-01-17T16:10:45.963Z,983.16
2019-01-17T16:39:24.380Z,983.04
2019-01-17T17:08:05.439Z,984.31
2019-01-17T17:36:23.592Z,984.97
2019-01-17T18:05:00.468Z,985.39
2019-01-17T18:33:33.385Z,985.94
2019-01-17T19:02:11.730Z,986.73
2019-01-17T19:30:52.581Z,987.35
2019-01-17T19:59:23.414Z,987.68
2019-01-17T20:28:01.856Z,988.21
2019-01-17T20:56:34.957Z,988.61
2019-01-17T21:25:11.592Z,989.31
2019-01-17T21:53:46.520Z,989.36
2019-01-17T22:22:25.227Z,989.66
2019-01-17T22:51:00.983Z,989.84
2019-01-17T23:19:34.728Z,990.14
2019-01-17T23:48:15.050Z,990.56
